METAR Data
IDs: Format: Raw Decoded Include TAF

Data at: 1657 UTC 03 Dec 2021

LFLN 031630Z AUTO 17010KT 9999 -RA BKN027 BKN033 OVC042 04/01 Q1014 TEMPO OVC014